createdAt,value
2017-10-30T00:00:30.385Z,978.65
2017-10-30T00:01:30.377Z,978.68
2017-10-30T00:02:30.372Z,978.72
2017-10-30T00:03:30.370Z,978.59
2017-10-30T00:04:30.360Z,978.53
2017-10-30T00:05:30.359Z,978.54
2017-10-30T00:06:30.346Z,978.56
2017-10-30T00:07:30.338Z,978.56
2017-10-30T00:08:30.333Z,978.57
2017-10-30T00:09:30.325Z,978.63
2017-10-30T00:10:30.320Z,978.63
2017-10-30T00:11:30.310Z,978.64
2017-10-30T00:12:30.308Z,978.63
2017-10-30T00:13:30.298Z,978.55
2017-10-30T00:14:30.291Z,978.61
2017-10-30T00:15:30.285Z,978.59
2017-10-30T00:16:30.281Z,978.60
2017-10-30T00:17:30.269Z,978.56
2017-10-30T00:18:30.266Z,978.58
2017-10-30T00:19:30.257Z,978.59
2017-10-30T00:20:30.250Z,978.57
2017-10-30T00:21:30.246Z,978.66
2017-10-30T00:22:30.243Z,978.59
2017-10-30T00:23:30.229Z,978.67
2017-10-30T00:24:30.220Z,978.66
2017-10-30T00:25:30.221Z,978.64
2017-10-30T00:26:30.208Z,978.73
2017-10-30T00:27:30.200Z,978.72
2017-10-30T00:28:30.194Z,978.77
2017-10-30T00:29:30.193Z,978.83
2017-10-30T00:30:30.178Z,978.75
2017-10-30T00:31:30.178Z,978.74
2017-10-30T00:32:30.177Z,978.78
2017-10-30T00:33:30.161Z,978.79
2017-10-30T00:34:30.155Z,978.85
2017-10-30T00:35:30.155Z,978.83
2017-10-30T00:36:30.143Z,978.85
2017-10-30T00:37:30.141Z,978.87
2017-10-30T00:38:30.131Z,978.95
2017-10-30T00:39:30.117Z,978.90
2017-10-30T00:40:30.115Z,978.92
2017-10-30T00:41:30.106Z,978.91
2017-10-30T00:42:30.101Z,978.97
2017-10-30T00:43:30.088Z,979.00
2017-10-30T00:44:30.088Z,979.00
2017-10-30T00:45:30.076Z,979.01
2017-10-30T00:46:30.077Z,978.98
2017-10-30T00:47:30.067Z,979.01
2017-10-30T00:48:30.064Z,978.97
2017-10-30T00:49:30.052Z,979.03
2017-10-30T00:50:30.069Z,979.01
2017-10-30T00:51:30.037Z,979.03
2017-10-30T00:52:30.037Z,979.04
2017-10-30T00:53:30.031Z,979.02
2017-10-30T00:54:30.021Z,979.05
2017-10-30T00:55:30.011Z,979.06
2017-10-30T00:56:30.004Z,979.08
2017-10-30T00:57:29.996Z,979.10
2017-10-30T00:58:29.991Z,979.09
2017-10-30T00:59:29.987Z,979.16
2017-10-30T01:00:29.976Z,979.11
2017-10-30T01:01:29.967Z,979.13
2017-10-30T01:02:29.962Z,979.17
2017-10-30T01:03:29.954Z,979.11
2017-10-30T01:04:29.954Z,979.09
2017-10-30T01:05:29.941Z,979.15
2017-10-30T01:06:29.936Z,979.14
2017-10-30T01:07:29.927Z,979.16
2017-10-30T01:08:29.917Z,979.17
2017-10-30T01:09:29.938Z,979.15
2017-10-30T01:10:29.905Z,979.15
2017-10-30T01:11:29.908Z,979.19
2017-10-30T01:12:29.888Z,979.14
2017-10-30T01:13:29.889Z,979.07
2017-10-30T01:14:29.880Z,979.10
2017-10-30T01:15:29.866Z,979.12
2017-10-30T01:16:29.860Z,979.12
2017-10-30T01:17:29.858Z,979.12
2017-10-30T01:18:29.852Z,979.22
2017-10-30T01:19:29.843Z,979.20
2017-10-30T01:20:29.834Z,979.10
2017-10-30T01:21:29.829Z,979.09
2017-10-30T01:22:29.821Z,979.09
2017-10-30T01:23:29.814Z,979.09
2017-10-30T01:24:29.808Z,979.09
2017-10-30T01:25:29.800Z,979.02
2017-10-30T01:26:29.796Z,979.11
2017-10-30T01:27:29.787Z,979.20
2017-10-30T01:28:29.783Z,979.23
2017-10-30T01:29:29.774Z,979.11
2017-10-30T01:30:29.770Z,979.14
2017-10-30T01:31:29.759Z,979.22
2017-10-30T01:32:29.759Z,979.18
2017-10-30T01:33:29.783Z,979.20
2017-10-30T01:34:29.741Z,979.21
2017-10-30T01:35:29.729Z,979.20
2017-10-30T01:36:29.722Z,979.29
2017-10-30T01:37:29.719Z,979.22
2017-10-30T01:38:29.717Z,979.27
2017-10-30T01:39:29.704Z,979.28
2017-10-30T01:40:29.699Z,979.16
2017-10-30T01:41:29.691Z,979.24
2017-10-30T01:42:29.686Z,979.30
2017-10-30T01:43:29.682Z,979.30
2017-10-30T01:44:29.674Z,979.24
2017-10-30T01:45:29.670Z,979.22
2017-10-30T01:46:29.656Z,979.20
2017-10-30T01:47:29.654Z,979.24
2017-10-30T01:48:29.644Z,979.27
2017-10-30T01:49:29.633Z,979.22
2017-10-30T01:50:29.627Z,979.19
2017-10-30T01:51:29.623Z,979.27
2017-10-30T01:52:29.614Z,979.27
2017-10-30T01:53:29.605Z,979.19
2017-10-30T01:54:29.605Z,979.24
2017-10-30T01:55:29.591Z,979.23
2017-10-30T01:56:29.633Z,979.21
2017-10-30T01:57:29.579Z,979.24
2017-10-30T01:58:29.573Z,979.33
2017-10-30T01:59:29.572Z,979.27
2017-10-30T02:00:29.560Z,979.31
2017-10-30T02:01:29.553Z,979.30
2017-10-30T02:02:29.543Z,979.29
2017-10-30T02:03:29.543Z,979.31
2017-10-30T02:04:29.530Z,979.21
2017-10-30T02:05:29.529Z,979.34
2017-10-30T02:06:29.518Z,979.35
2017-10-30T02:07:29.510Z,979.26
2017-10-30T02:08:29.505Z,979.45
2017-10-30T02:09:29.496Z,979.20
2017-10-30T02:10:29.491Z,979.22
2017-10-30T02:11:29.480Z,979.35
2017-10-30T02:12:29.475Z,979.44
2017-10-30T02:13:29.469Z,979.36
2017-10-30T02:14:29.461Z,979.28
2017-10-30T02:15:29.455Z,979.33
2017-10-30T02:16:29.445Z,979.22
2017-10-30T02:17:29.442Z,979.37
2017-10-30T02:18:29.435Z,979.30
2017-10-30T02:19:29.429Z,979.30
2017-10-30T02:20:29.420Z,979.40
2017-10-30T02:21:29.413Z,979.28
2017-10-30T02:22:29.406Z,979.27
2017-10-30T02:23:29.399Z,979.39
2017-10-30T02:24:29.396Z,979.28
2017-10-30T02:25:29.397Z,979.36
2017-10-30T02:26:29.392Z,979.38
2017-10-30T02:27:29.375Z,979.36
2017-10-30T02:28:29.367Z,979.28
2017-10-30T02:29:29.361Z,979.40
2017-10-30T02:30:29.352Z,979.40
2017-10-30T02:31:29.340Z,979.32
2017-10-30T02:32:29.332Z,979.42
2017-10-30T02:33:29.330Z,979.34
2017-10-30T02:34:29.326Z,979.42
2017-10-30T02:35:29.316Z,979.40
2017-10-30T02:36:29.310Z,979.41
2017-10-30T02:37:29.309Z,979.40
2017-10-30T02:38:29.308Z,979.33
2017-10-30T02:39:29.290Z,979.34
2017-10-30T02:40:29.283Z,979.41
2017-10-30T02:41:29.287Z,979.49
2017-10-30T02:42:29.270Z,979.45
2017-10-30T02:43:29.262Z,979.40
2017-10-30T02:44:29.255Z,979.39
2017-10-30T02:45:29.248Z,979.42
2017-10-30T02:46:29.242Z,979.45
2017-10-30T02:47:29.234Z,979.37
2017-10-30T02:48:29.227Z,979.56
2017-10-30T02:49:29.222Z,979.45
2017-10-30T02:50:29.215Z,979.35
2017-10-30T02:51:29.206Z,979.59
2017-10-30T02:52:29.202Z,979.54
2017-10-30T02:53:29.198Z,979.62
2017-10-30T02:54:29.191Z,979.56
2017-10-30T02:55:29.182Z,979.57
2017-10-30T02:56:29.173Z,979.64
2017-10-30T02:57:29.167Z,979.51
2017-10-30T02:58:29.163Z,979.53
2017-10-30T02:59:29.154Z,979.67
2017-10-30T03:00:29.146Z,979.70
2017-10-30T03:01:29.141Z,979.60
2017-10-30T03:02:29.135Z,979.66
2017-10-30T03:03:29.129Z,979.73
2017-10-30T03:04:29.118Z,979.71
2017-10-30T03:05:29.114Z,979.74
2017-10-30T03:06:29.104Z,979.77
2017-10-30T03:07:29.099Z,979.67
2017-10-30T03:08:29.094Z,979.80
2017-10-30T03:09:29.085Z,979.62
2017-10-30T03:10:29.078Z,979.75
2017-10-30T03:11:29.069Z,979.71
2017-10-30T03:12:29.064Z,979.74
2017-10-30T03:13:29.055Z,979.71
2017-10-30T03:14:29.049Z,979.79
2017-10-30T03:15:29.043Z,979.86
2017-10-30T03:16:29.037Z,979.79
2017-10-30T03:17:29.029Z,979.87
2017-10-30T03:18:29.026Z,979.84
2017-10-30T03:19:29.015Z,979.85
2017-10-30T03:20:29.009Z,979.84
2017-10-30T03:21:29.001Z,979.87
2017-10-30T03:22:28.995Z,979.86
2017-10-30T03:23:28.988Z,979.88
2017-10-30T03:24:28.984Z,979.85
2017-10-30T03:25:28.973Z,979.94
2017-10-30T03:26:28.968Z,979.88
2017-10-30T03:27:28.960Z,979.90
2017-10-30T03:28:28.955Z,979.86
2017-10-30T03:29:28.943Z,979.95
2017-10-30T03:30:28.951Z,979.95
2017-10-30T03:31:28.934Z,979.96
2017-10-30T03:32:28.928Z,979.95
2017-10-30T03:33:28.917Z,979.88
2017-10-30T03:34:28.914Z,979.96
2017-10-30T03:35:28.904Z,979.97
2017-10-30T03:36:28.899Z,979.94
2017-10-30T03:37:28.895Z,979.95
2017-10-30T03:38:28.888Z,979.92
2017-10-30T03:39:28.878Z,979.97
2017-10-30T03:40:28.872Z,980.04
2017-10-30T03:41:28.865Z,979.99
2017-10-30T03:42:28.859Z,979.93
2017-10-30T03:43:28.851Z,979.92
2017-10-30T03:44:28.844Z,980.03
2017-10-30T03:45:28.836Z,980.10
2017-10-30T03:46:28.830Z,980.09
2017-10-30T03:47:28.821Z,980.06
2017-10-30T03:48:28.816Z,980.13
2017-10-30T03:49:28.810Z,980.04
2017-10-30T03:50:28.804Z,980.16
2017-10-30T03:51:28.795Z,980.11
2017-10-30T03:52:28.789Z,980.17
2017-10-30T03:53:28.784Z,980.25
2017-10-30T03:54:28.776Z,980.19
2017-10-30T03:55:28.768Z,980.25
2017-10-30T03:56:28.760Z,980.24
2017-10-30T03:57:28.754Z,980.19
2017-10-30T03:58:28.751Z,980.25
2017-10-30T03:59:28.742Z,980.32
2017-10-30T04:00:28.734Z,980.42
2017-10-30T04:01:28.726Z,980.36
2017-10-30T04:02:28.719Z,980.33
2017-10-30T04:03:28.713Z,980.47
2017-10-30T04:04:28.706Z,980.44
2017-10-30T04:05:28.700Z,980.42
2017-10-30T04:06:28.694Z,980.46
2017-10-30T04:07:28.684Z,980.39
2017-10-30T04:08:28.681Z,980.44
2017-10-30T04:09:28.673Z,980.50
2017-10-30T04:10:28.669Z,980.47
2017-10-30T04:11:28.656Z,980.49
2017-10-30T04:12:28.653Z,980.45
2017-10-30T04:13:28.646Z,980.52
2017-10-30T04:14:28.639Z,980.46
2017-10-30T04:15:28.630Z,980.51
2017-10-30T04:16:28.624Z,980.50
2017-10-30T04:17:28.618Z,980.52
2017-10-30T04:18:28.616Z,980.49
2017-10-30T04:19:28.603Z,980.71
2017-10-30T04:20:28.599Z,980.53
2017-10-30T04:21:28.590Z,980.50
2017-10-30T04:22:28.582Z,980.44
2017-10-30T04:23:28.578Z,980.47
2017-10-30T04:24:28.568Z,980.45
2017-10-30T04:25:28.561Z,980.50
2017-10-30T04:26:28.557Z,980.48
2017-10-30T04:27:28.549Z,980.49
2017-10-30T04:28:28.543Z,980.69
2017-10-30T04:29:28.537Z,980.64
2017-10-30T04:30:28.529Z,980.64
2017-10-30T04:31:28.522Z,980.63
2017-10-30T04:32:28.512Z,980.62
2017-10-30T04:33:28.509Z,980.54
2017-10-30T04:34:28.502Z,980.69
2017-10-30T04:35:28.495Z,980.60
2017-10-30T04:36:28.502Z,980.70
2017-10-30T04:37:28.482Z,980.63
2017-10-30T04:38:28.476Z,980.70
2017-10-30T04:39:28.465Z,980.71
2017-10-30T04:40:28.461Z,980.76
2017-10-30T04:41:28.455Z,980.66
2017-10-30T04:42:28.448Z,980.74
2017-10-30T04:43:28.440Z,980.80
2017-10-30T04:44:28.441Z,980.71
2017-10-30T04:45:28.427Z,980.78
2017-10-30T04:46:28.421Z,980.64
2017-10-30T04:47:28.419Z,980.77
2017-10-30T04:48:28.405Z,980.74
2017-10-30T04:49:28.403Z,980.76
2017-10-30T04:50:28.393Z,980.84
2017-10-30T04:51:28.390Z,980.87
2017-10-30T04:52:28.380Z,980.92
2017-10-30T04:53:28.375Z,980.90
2017-10-30T04:54:28.369Z,980.85
2017-10-30T04:55:28.361Z,980.90
2017-10-30T04:56:28.353Z,980.89
2017-10-30T04:57:28.347Z,980.87
2017-10-30T04:58:28.340Z,980.94
2017-10-30T04:59:28.334Z,980.96
2017-10-30T05:00:28.326Z,980.98
2017-10-30T05:01:28.319Z,980.95
2017-10-30T05:02:28.312Z,980.95
2017-10-30T05:03:28.309Z,981.01
2017-10-30T05:04:28.299Z,981.02
2017-10-30T05:05:28.294Z,980.97
2017-10-30T05:06:28.286Z,981.03
2017-10-30T05:07:28.281Z,981.00
2017-10-30T05:08:28.274Z,981.06
2017-10-30T05:09:28.273Z,981.05
2017-10-30T05:10:28.261Z,981.08
2017-10-30T05:11:28.257Z,980.95
2017-10-30T05:12:28.247Z,981.14
2017-10-30T05:13:28.242Z,980.98
2017-10-30T05:14:28.239Z,981.07
2017-10-30T05:15:28.227Z,981.06
2017-10-30T05:16:28.220Z,980.98
2017-10-30T05:17:28.213Z,981.05
2017-10-30T05:18:28.208Z,981.13
2017-10-30T05:19:28.204Z,981.12
2017-10-30T05:20:28.194Z,981.10
2017-10-30T05:21:28.186Z,981.10
2017-10-30T05:22:28.180Z,981.15
2017-10-30T05:23:28.176Z,981.21
2017-10-30T05:24:28.165Z,981.18
2017-10-30T05:25:28.159Z,981.19
2017-10-30T05:26:28.155Z,981.17
2017-10-30T05:27:28.146Z,981.16
2017-10-30T05:28:28.139Z,981.26
2017-10-30T05:29:28.138Z,981.21
2017-10-30T05:30:28.126Z,981.30
2017-10-30T05:31:28.120Z,981.33
2017-10-30T05:32:28.111Z,981.28
2017-10-30T05:33:28.106Z,981.24
2017-10-30T05:34:28.101Z,981.30
2017-10-30T05:35:28.091Z,981.23
2017-10-30T05:36:28.083Z,981.25
2017-10-30T05:37:28.077Z,981.26
2017-10-30T05:38:28.071Z,981.25
2017-10-30T05:39:28.067Z,981.26
2017-10-30T05:40:28.057Z,981.22
2017-10-30T05:41:28.050Z,981.40
2017-10-30T05:42:28.044Z,981.20
2017-10-30T05:43:28.036Z,981.13
2017-10-30T05:44:28.033Z,981.33
2017-10-30T05:45:28.022Z,981.38
2017-10-30T05:46:28.016Z,981.30
2017-10-30T05:47:28.010Z,981.38
2017-10-30T05:48:28.002Z,981.40
2017-10-30T05:49:27.998Z,981.39
2017-10-30T05:50:27.990Z,981.31
2017-10-30T05:51:27.982Z,981.41
2017-10-30T05:52:27.975Z,981.52
2017-10-30T05:53:27.968Z,981.46
2017-10-30T05:54:27.959Z,981.57
2017-10-30T05:55:27.965Z,981.47
2017-10-30T05:56:27.951Z,981.49
2017-10-30T05:57:27.941Z,981.43
2017-10-30T05:58:27.933Z,981.53
2017-10-30T05:59:27.927Z,981.47
2017-10-30T06:00:27.920Z,981.57
2017-10-30T06:01:27.911Z,981.45
2017-10-30T06:02:27.910Z,981.50
2017-10-30T06:03:27.898Z,981.57
2017-10-30T06:04:27.921Z,981.62
2017-10-30T06:05:27.888Z,981.55
2017-10-30T06:06:27.883Z,981.61
2017-10-30T06:07:27.873Z,981.65
2017-10-30T06:08:27.866Z,981.73
2017-10-30T06:09:27.865Z,981.65
2017-10-30T06:10:27.853Z,981.61
2017-10-30T06:11:27.845Z,981.69
2017-10-30T06:12:27.838Z,981.73
2017-10-30T06:13:27.830Z,981.60
2017-10-30T06:14:27.825Z,981.80
2017-10-30T06:15:27.817Z,981.77
2017-10-30T06:16:27.811Z,981.71
2017-10-30T06:17:27.803Z,981.74
2017-10-30T06:18:27.797Z,981.75
2017-10-30T06:19:27.790Z,981.74
2017-10-30T06:20:27.780Z,981.84
2017-10-30T06:21:27.779Z,981.79
2017-10-30T06:22:27.769Z,981.82
2017-10-30T06:23:27.759Z,981.80
2017-10-30T06:24:27.761Z,981.84
2017-10-30T06:25:27.749Z,981.96
2017-10-30T06:26:27.742Z,981.86
2017-10-30T06:27:27.738Z,981.89
2017-10-30T06:28:27.728Z,981.91
2017-10-30T06:29:27.728Z,982.06
2017-10-30T06:30:27.718Z,982.06
2017-10-30T06:31:27.708Z,982.09
2017-10-30T06:32:27.705Z,982.15
2017-10-30T06:33:27.695Z,982.14
2017-10-30T06:34:27.690Z,982.10
2017-10-30T06:35:27.681Z,982.24
2017-10-30T06:36:27.676Z,982.12
2017-10-30T06:37:27.669Z,982.10
2017-10-30T06:38:27.661Z,982.17
2017-10-30T06:39:27.653Z,982.19
2017-10-30T06:40:27.647Z,982.18
2017-10-30T06:41:27.644Z,982.23
2017-10-30T06:42:27.634Z,982.30
2017-10-30T06:43:27.625Z,982.20
2017-10-30T06:44:27.620Z,982.23
2017-10-30T06:45:27.616Z,982.41
2017-10-30T06:46:27.610Z,982.34
2017-10-30T06:47:27.600Z,982.41
2017-10-30T06:48:27.605Z,982.33
2017-10-30T06:49:27.588Z,982.37
2017-10-30T06:50:27.581Z,982.37
2017-10-30T06:51:27.575Z,982.48
2017-10-30T06:52:27.565Z,982.35
2017-10-30T06:53:27.560Z,982.38
2017-10-30T06:54:27.552Z,982.35
2017-10-30T06:55:27.545Z,982.45
2017-10-30T06:56:27.538Z,982.40
2017-10-30T06:57:27.534Z,982.50
2017-10-30T06:58:27.525Z,982.45
2017-10-30T06:59:27.526Z,982.66
2017-10-30T07:00:27.510Z,982.50
2017-10-30T07:01:27.505Z,982.49
2017-10-30T07:02:27.497Z,982.56
2017-10-30T07:03:27.492Z,982.62
2017-10-30T07:04:27.486Z,982.58
2017-10-30T07:05:27.479Z,982.66
2017-10-30T07:06:27.471Z,982.64
2017-10-30T07:07:27.464Z,982.64
2017-10-30T07:08:27.457Z,982.68
2017-10-30T07:09:27.454Z,982.67
2017-10-30T07:10:27.444Z,982.62
2017-10-30T07:11:27.442Z,982.59
2017-10-30T07:12:27.435Z,982.70
2017-10-30T07:13:27.425Z,982.68
2017-10-30T07:14:27.420Z,982.70
2017-10-30T07:15:27.416Z,982.79
2017-10-30T07:16:27.402Z,982.85
2017-10-30T07:17:27.397Z,982.84
2017-10-30T07:18:27.392Z,982.80
2017-10-30T07:19:27.387Z,982.76
2017-10-30T07:20:27.381Z,982.78
2017-10-30T07:21:27.374Z,982.86
2017-10-30T07:22:27.364Z,982.89
2017-10-30T07:23:27.364Z,982.89
2017-10-30T07:24:27.351Z,982.85
2017-10-30T07:25:27.340Z,983.05
2017-10-30T07:26:27.345Z,982.92
2017-10-30T07:27:27.332Z,983.04
2017-10-30T07:28:27.324Z,982.96
2017-10-30T07:29:27.324Z,982.99
2017-10-30T07:30:27.312Z,983.00
2017-10-30T07:31:27.308Z,982.99
2017-10-30T07:32:27.299Z,983.08
2017-10-30T07:33:27.292Z,983.07
2017-10-30T07:34:27.286Z,983.14
2017-10-30T07:35:27.280Z,983.06
2017-10-30T07:36:27.275Z,983.09
2017-10-30T07:37:27.266Z,983.10
2017-10-30T07:38:27.259Z,983.13
2017-10-30T07:39:27.260Z,983.17
2017-10-30T07:40:27.246Z,983.16
2017-10-30T07:41:27.240Z,983.24
2017-10-30T07:42:27.235Z,983.25
2017-10-30T07:43:27.227Z,983.18
2017-10-30T07:44:27.221Z,983.24
2017-10-30T07:45:27.214Z,983.21
2017-10-30T07:46:27.209Z,983.22
2017-10-30T07:47:27.199Z,983.23
2017-10-30T07:48:27.197Z,983.22
2017-10-30T07:49:27.190Z,983.21
2017-10-30T07:50:27.183Z,983.22
2017-10-30T07:51:27.176Z,983.24
2017-10-30T07:52:27.168Z,983.25
2017-10-30T07:53:27.162Z,983.29
2017-10-30T07:54:27.156Z,983.29
2017-10-30T07:55:27.149Z,983.19
2017-10-30T07:56:27.145Z,983.29
2017-10-30T07:57:27.139Z,983.36
2017-10-30T07:58:27.162Z,983.31
2017-10-30T07:59:27.177Z,983.39
2017-10-30T08:00:27.117Z,983.31
2017-10-30T08:01:27.139Z,983.39
2017-10-30T08:02:27.106Z,983.44
2017-10-30T08:03:27.095Z,983.43
2017-10-30T08:04:27.094Z,983.42
2017-10-30T08:05:27.085Z,983.44
2017-10-30T08:06:27.081Z,983.45
2017-10-30T08:07:27.078Z,983.41
2017-10-30T08:08:27.076Z,983.41
2017-10-30T08:09:27.063Z,983.49
2017-10-30T08:10:27.056Z,983.42
2017-10-30T08:11:27.048Z,983.49
2017-10-30T08:12:27.047Z,983.56
2017-10-30T08:13:27.037Z,983.43
2017-10-30T08:14:27.026Z,983.50
2017-10-30T08:15:27.023Z,983.38
2017-10-30T08:16:27.018Z,983.50
2017-10-30T08:17:27.011Z,983.57
2017-10-30T08:18:27.002Z,983.45
2017-10-30T08:19:27.003Z,983.46
2017-10-30T08:20:26.989Z,983.53
2017-10-30T08:21:26.984Z,983.49
2017-10-30T08:22:26.979Z,983.46
2017-10-30T08:23:26.965Z,983.51
2017-10-30T08:24:26.970Z,983.53
2017-10-30T08:25:26.960Z,983.47
2017-10-30T08:26:26.970Z,983.52
2017-10-30T08:27:26.949Z,983.56
2017-10-30T08:28:26.941Z,983.54
2017-10-30T08:29:26.936Z,983.55
2017-10-30T08:30:26.928Z,983.68
2017-10-30T08:31:26.923Z,983.55
2017-10-30T08:32:26.916Z,983.65
2017-10-30T08:33:26.911Z,983.63
2017-10-30T08:34:26.908Z,983.75
2017-10-30T08:35:26.899Z,983.60
2017-10-30T08:36:26.898Z,983.75
2017-10-30T08:37:26.893Z,983.72
2017-10-30T08:38:26.882Z,983.75
2017-10-30T08:39:26.878Z,983.79
2017-10-30T08:40:26.870Z,983.84
2017-10-30T08:41:26.860Z,983.79
2017-10-30T08:42:26.860Z,983.87
2017-10-30T08:43:26.850Z,983.94
2017-10-30T08:44:26.847Z,983.83
2017-10-30T08:45:26.840Z,983.88
2017-10-30T08:46:26.833Z,983.72
2017-10-30T08:47:26.827Z,983.81
2017-10-30T08:48:26.821Z,983.90
2017-10-30T08:49:26.819Z,983.93
2017-10-30T08:50:26.811Z,983.95
2017-10-30T08:51:26.838Z,983.93
2017-10-30T08:52:26.798Z,983.93
2017-10-30T08:53:26.793Z,983.98
2017-10-30T08:54:26.787Z,984.03
2017-10-30T08:55:26.782Z,983.90
2017-10-30T08:56:26.774Z,984.12
2017-10-30T08:57:26.769Z,984.08
2017-10-30T08:58:26.758Z,984.07
2017-10-30T08:59:26.766Z,984.10
2017-10-30T09:00:26.746Z,984.13
2017-10-30T09:01:26.746Z,984.05
2017-10-30T09:02:26.741Z,984.01
2017-10-30T09:03:26.737Z,984.08
2017-10-30T09:04:26.728Z,984.07
2017-10-30T09:05:26.725Z,984.11
2017-10-30T09:06:26.728Z,984.13
2017-10-30T09:07:26.713Z,984.11
2017-10-30T09:08:26.707Z,984.10
2017-10-30T09:09:26.710Z,984.13
2017-10-30T09:10:26.696Z,984.13
2017-10-30T09:11:26.688Z,984.07
2017-10-30T09:12:26.688Z,984.13
2017-10-30T09:13:26.679Z,984.11
2017-10-30T09:14:26.674Z,984.18
2017-10-30T09:15:26.669Z,984.11
2017-10-30T09:16:26.670Z,984.15
2017-10-30T09:17:26.660Z,984.22
2017-10-30T09:18:26.654Z,984.21
2017-10-30T09:19:26.653Z,984.18
2017-10-30T09:20:26.640Z,984.22
2017-10-30T09:21:26.637Z,984.40
2017-10-30T09:22:26.632Z,984.26
2017-10-30T09:23:26.626Z,984.25
2017-10-30T09:25:26.619Z,984.34
2017-10-30T09:26:26.610Z,984.40
2017-10-30T09:27:26.603Z,984.31
2017-10-30T09:28:26.601Z,984.31
2017-10-30T09:29:26.621Z,984.31
2017-10-30T09:30:26.591Z,984.39
2017-10-30T09:31:26.583Z,984.38
2017-10-30T09:32:26.580Z,984.42
2017-10-30T09:33:26.638Z,984.42
2017-10-30T09:34:26.569Z,984.42
2017-10-30T09:35:26.558Z,984.37
2017-10-30T09:36:26.571Z,984.35
2017-10-30T09:37:26.550Z,984.47
2017-10-30T09:38:26.543Z,984.44
2017-10-30T09:39:26.546Z,984.37
2017-10-30T09:40:26.557Z,984.39
2017-10-30T09:41:26.531Z,984.48
2017-10-30T09:42:26.528Z,984.49
2017-10-30T09:43:26.519Z,984.49
2017-10-30T09:44:26.541Z,984.53
2017-10-30T09:45:26.505Z,984.53
2017-10-30T09:46:26.508Z,984.53
2017-10-30T09:47:26.498Z,984.55
2017-10-30T09:48:26.497Z,984.41
2017-10-30T09:49:26.493Z,984.48
2017-10-30T09:50:26.480Z,984.37
2017-10-30T09:51:26.479Z,984.29
2017-10-30T09:52:26.472Z,984.48
2017-10-30T09:53:26.469Z,984.52
2017-10-30T09:54:26.475Z,984.55
2017-10-30T09:55:26.457Z,984.63
2017-10-30T09:56:26.451Z,984.57
2017-10-30T09:57:26.452Z,984.49
2017-10-30T09:58:26.445Z,984.66
2017-10-30T09:59:26.440Z,984.58
2017-10-30T10:00:26.432Z,984.59
2017-10-30T10:01:26.425Z,984.60
2017-10-30T10:02:26.423Z,984.58
2017-10-30T10:03:26.444Z,984.56
2017-10-30T10:04:26.442Z,984.59
2017-10-30T10:05:26.409Z,984.60
2017-10-30T10:06:26.401Z,984.62
2017-10-30T10:07:26.466Z,984.59
2017-10-30T10:08:26.388Z,984.63
2017-10-30T10:09:26.391Z,984.59
2017-10-30T10:10:26.470Z,984.59
2017-10-30T10:11:26.376Z,984.65
2017-10-30T10:12:26.374Z,984.65
2017-10-30T10:13:26.367Z,984.62
2017-10-30T10:14:26.367Z,984.67
2017-10-30T10:15:26.358Z,984.64
2017-10-30T10:16:26.357Z,984.57
2017-10-30T10:17:26.355Z,984.59
2017-10-30T10:18:26.344Z,984.59
2017-10-30T10:19:26.339Z,984.66
2017-10-30T10:20:26.334Z,984.57
2017-10-30T10:21:26.381Z,984.68
2017-10-30T10:22:26.327Z,984.71
2017-10-30T10:23:26.324Z,984.71
2017-10-30T10:24:26.320Z,984.68
2017-10-30T10:25:26.314Z,984.68
2017-10-30T10:26:26.309Z,984.69
2017-10-30T10:27:26.302Z,984.70
2017-10-30T10:28:26.297Z,984.68
2017-10-30T10:29:26.297Z,984.71
2017-10-30T10:30:26.284Z,984.69
2017-10-30T10:31:26.283Z,984.62
2017-10-30T10:32:26.280Z,984.72
2017-10-30T10:33:26.274Z,984.69
2017-10-30T10:34:26.277Z,984.74
2017-10-30T10:35:26.262Z,984.74
2017-10-30T10:36:26.264Z,984.71
2017-10-30T10:37:26.256Z,984.78
2017-10-30T10:38:26.255Z,984.78
2017-10-30T10:39:26.251Z,984.85
2017-10-30T10:40:26.247Z,984.78
2017-10-30T10:41:26.239Z,984.81
2017-10-30T10:42:26.236Z,984.77
2017-10-30T10:43:26.235Z,984.75
2017-10-30T10:44:26.225Z,984.85
2017-10-30T10:45:26.229Z,984.81
2017-10-30T10:46:26.219Z,984.75
2017-10-30T10:47:26.216Z,984.86
2017-10-30T10:48:26.208Z,984.82
2017-10-30T10:49:26.207Z,984.79
2017-10-30T10:50:26.202Z,984.82
2017-10-30T10:51:26.197Z,984.79
2017-10-30T10:52:26.194Z,984.90
2017-10-30T10:53:26.194Z,984.68
2017-10-30T10:54:26.188Z,984.81
2017-10-30T10:55:26.180Z,984.88
2017-10-30T10:56:26.175Z,984.81
2017-10-30T10:57:26.173Z,984.85
2017-10-30T10:58:26.176Z,984.85
2017-10-30T10:59:26.168Z,984.82
2017-10-30T11:00:26.161Z,984.84
2017-10-30T11:01:26.157Z,984.85
2017-10-30T11:02:26.152Z,984.71
2017-10-30T11:03:26.147Z,984.84
2017-10-30T11:04:26.150Z,984.85
2017-10-30T11:05:26.137Z,984.76
2017-10-30T11:06:26.157Z,984.89
2017-10-30T11:07:26.130Z,984.85
2017-10-30T11:08:26.126Z,984.92
2017-10-30T11:09:26.128Z,984.83
2017-10-30T11:10:26.120Z,984.78
2017-10-30T11:11:26.114Z,984.83
2017-10-30T11:12:26.111Z,984.88
2017-10-30T11:13:26.107Z,984.89
2017-10-30T11:14:26.109Z,984.88
2017-10-30T11:15:26.098Z,984.91
2017-10-30T11:16:26.096Z,984.97
2017-10-30T11:17:26.095Z,984.94
2017-10-30T11:18:26.089Z,985.01
2017-10-30T11:19:26.086Z,984.95
2017-10-30T11:20:26.085Z,985.00
2017-10-30T11:21:26.082Z,985.09
2017-10-30T11:22:26.076Z,985.04
2017-10-30T11:23:26.070Z,985.01
2017-10-30T11:24:26.067Z,984.97
2017-10-30T11:25:26.074Z,985.00
2017-10-30T11:26:26.056Z,984.94
2017-10-30T11:27:26.052Z,984.99
2017-10-30T11:28:26.051Z,984.98
2017-10-30T11:29:26.065Z,984.97
2017-10-30T11:30:26.041Z,984.95
2017-10-30T11:31:26.038Z,984.99
2017-10-30T11:32:26.035Z,985.04
2017-10-30T11:33:26.032Z,985.07
2017-10-30T11:34:26.031Z,985.03
2017-10-30T11:35:26.027Z,984.99
2017-10-30T11:36:26.034Z,984.97
2017-10-30T11:37:26.024Z,985.05
2017-10-30T11:38:26.014Z,985.11
2017-10-30T11:39:26.012Z,985.14
2017-10-30T11:40:26.009Z,985.10
2017-10-30T11:41:26.007Z,984.97
2017-10-30T11:42:26.001Z,985.06
2017-10-30T11:43:26.003Z,985.13
2017-10-30T11:44:25.995Z,985.00
2017-10-30T11:45:25.992Z,985.02
2017-10-30T11:46:25.989Z,985.06
2017-10-30T11:47:25.984Z,985.13
2017-10-30T11:48:25.982Z,985.09
2017-10-30T11:49:25.980Z,985.09
2017-10-30T11:50:25.978Z,985.09
2017-10-30T11:51:25.975Z,985.11
2017-10-30T11:52:25.970Z,985.16
2017-10-30T11:53:25.969Z,985.15
2017-10-30T11:54:25.960Z,985.12
2017-10-30T11:55:25.957Z,985.16
2017-10-30T11:56:25.951Z,985.14
2017-10-30T11:57:25.959Z,985.12
2017-10-30T11:58:25.949Z,985.16
2017-10-30T11:59:25.960Z,985.04
2017-10-30T12:00:25.937Z,985.06
2017-10-30T12:01:25.946Z,985.07
2017-10-30T12:02:25.940Z,985.08
2017-10-30T12:03:25.934Z,985.09
2017-10-30T12:04:25.966Z,985.08
2017-10-30T12:05:25.930Z,985.13
2017-10-30T12:06:25.916Z,985.21
2017-10-30T12:07:25.908Z,985.19
2017-10-30T12:08:25.925Z,985.26
2017-10-30T12:09:25.908Z,985.28
2017-10-30T12:10:25.907Z,985.26
2017-10-30T12:11:25.894Z,985.22
2017-10-30T12:12:25.887Z,985.25
2017-10-30T12:13:25.890Z,985.25
2017-10-30T12:14:25.886Z,985.31
2017-10-30T12:15:25.881Z,985.22
2017-10-30T12:16:25.878Z,985.20
2017-10-30T12:17:25.877Z,985.17
2017-10-30T12:18:25.874Z,985.16
2017-10-30T12:19:25.870Z,985.16
2017-10-30T12:20:25.866Z,985.34
2017-10-30T12:21:25.866Z,985.24
2017-10-30T12:22:25.859Z,985.26
2017-10-30T12:23:25.856Z,985.21
2017-10-30T12:24:25.866Z,985.15
2017-10-30T12:25:25.849Z,985.22
2017-10-30T12:26:25.842Z,985.25
2017-10-30T12:27:25.839Z,985.26
2017-10-30T12:28:25.865Z,985.37
2017-10-30T12:29:25.837Z,985.31